createdAt,value
2022-11-29T00:00:32.129Z,8.75
2022-11-29T00:01:32.123Z,8.73
2022-11-29T00:02:32.236Z,8.75
2022-11-29T00:03:32.110Z,8.75
2022-11-29T00:04:32.094Z,8.76
2022-11-29T00:05:32.095Z,8.78
2022-11-29T00:06:32.113Z,8.79
2022-11-29T00:07:32.092Z,8.78
2022-11-29T00:08:32.073Z,8.75
2022-11-29T00:09:32.037Z,8.76
2022-11-29T00:10:32.061Z,8.78
2022-11-29T00:11:32.034Z,8.78
2022-11-29T00:12:32.004Z,8.79
2022-11-29T00:13:32.006Z,8.78
2022-11-29T00:14:31.984Z,8.78
2022-11-29T00:15:31.987Z,8.76
2022-11-29T00:16:32.057Z,8.75
2022-11-29T00:17:31.941Z,8.75
2022-11-29T00:18:31.948Z,8.75
2022-11-29T00:19:31.954Z,8.75
2022-11-29T00:20:31.973Z,8.73
2022-11-29T00:21:31.895Z,8.76
2022-11-29T00:22:31.885Z,8.78
2022-11-29T00:23:31.878Z,8.79
2022-11-29T00:24:31.872Z,8.78
2022-11-29T00:25:31.854Z,8.79
2022-11-29T00:26:38.358Z,8.79
2022-11-29T00:27:31.831Z,8.78
2022-11-29T00:28:31.857Z,8.78
2022-11-29T00:29:31.820Z,8.76
2022-11-29T00:30:31.854Z,8.75
2022-11-29T00:31:31.803Z,8.73
2022-11-29T00:32:31.792Z,8.73
2022-11-29T00:33:31.759Z,8.71
2022-11-29T00:34:31.771Z,8.71
2022-11-29T00:35:31.753Z,8.68
2022-11-29T00:36:31.755Z,8.65
2022-11-29T00:37:31.746Z,8.65
2022-11-29T00:38:31.709Z,8.63
2022-11-29T00:39:31.694Z,8.61
2022-11-29T00:40:31.694Z,8.60
2022-11-29T00:41:31.662Z,8.57
2022-11-29T00:42:31.679Z,8.57
2022-11-29T00:43:31.653Z,8.55
2022-11-29T00:44:31.659Z,8.55
2022-11-29T00:45:31.627Z,8.54
2022-11-29T00:46:31.683Z,8.54
2022-11-29T00:47:31.615Z,8.52
2022-11-29T00:48:31.624Z,8.52
2022-11-29T00:49:31.574Z,8.52
2022-11-29T00:50:31.597Z,8.52
2022-11-29T00:51:31.619Z,8.52
2022-11-29T00:52:31.578Z,8.54
2022-11-29T00:53:31.541Z,8.55
2022-11-29T00:54:31.548Z,8.58
2022-11-29T00:55:31.524Z,8.58
2022-11-29T00:56:38.046Z,8.60
2022-11-29T00:57:31.487Z,8.63
2022-11-29T00:58:31.485Z,8.63
2022-11-29T00:59:31.487Z,8.63
2022-11-29T01:00:31.481Z,8.61
2022-11-29T01:01:31.599Z,8.64
2022-11-29T01:02:31.527Z,8.63
2022-11-29T01:03:31.444Z,8.64
2022-11-29T01:04:31.442Z,8.65
2022-11-29T01:05:31.414Z,8.65
2022-11-29T01:06:31.425Z,8.65
2022-11-29T01:07:31.395Z,8.67
2022-11-29T01:08:31.373Z,8.70
2022-11-29T01:09:31.353Z,8.71
2022-11-29T01:10:31.370Z,8.71
2022-11-29T01:11:31.341Z,8.70
2022-11-29T01:12:31.328Z,8.67
2022-11-29T01:13:31.310Z,8.67
2022-11-29T01:14:31.304Z,8.65
2022-11-29T01:15:31.285Z,8.67
2022-11-29T01:16:31.399Z,8.65
2022-11-29T01:17:31.291Z,8.64
2022-11-29T01:18:31.261Z,8.64
2022-11-29T01:19:31.239Z,8.65
2022-11-29T01:20:31.237Z,8.64
2022-11-29T01:21:31.252Z,8.64
2022-11-29T01:22:31.264Z,8.63
2022-11-29T01:23:31.200Z,8.60
2022-11-29T01:24:31.261Z,8.61
2022-11-29T01:25:31.204Z,8.63
2022-11-29T01:26:31.191Z,8.64
2022-11-29T01:27:31.185Z,8.65
2022-11-29T01:28:31.141Z,8.67
2022-11-29T01:29:31.137Z,8.68
2022-11-29T01:30:31.163Z,8.67
2022-11-29T01:31:31.164Z,8.68
2022-11-29T01:32:31.121Z,8.67
2022-11-29T01:33:31.095Z,8.68
2022-11-29T01:34:31.077Z,8.67
2022-11-29T01:35:31.123Z,8.68
2022-11-29T01:36:31.077Z,8.70
2022-11-29T01:37:31.048Z,8.70
2022-11-29T01:38:31.034Z,8.70
2022-11-29T01:39:31.064Z,8.70
2022-11-29T01:40:31.055Z,8.70
2022-11-29T01:41:31.023Z,8.70
2022-11-29T01:42:31.005Z,8.71
2022-11-29T01:43:30.990Z,8.71
2022-11-29T01:44:30.985Z,8.71
2022-11-29T01:45:30.988Z,8.71
2022-11-29T01:46:30.985Z,8.70
2022-11-29T01:47:30.946Z,8.68
2022-11-29T01:48:30.937Z,8.67
2022-11-29T01:49:30.928Z,8.67
2022-11-29T01:50:30.902Z,8.68
2022-11-29T01:51:30.905Z,8.70
2022-11-29T01:52:30.884Z,8.68
2022-11-29T01:53:30.911Z,8.70
2022-11-29T01:54:30.901Z,8.68
2022-11-29T01:55:30.889Z,8.71
2022-11-29T01:56:30.839Z,8.70
2022-11-29T01:57:30.851Z,8.71
2022-11-29T01:58:30.815Z,8.73
2022-11-29T01:59:30.834Z,8.76
2022-11-29T02:00:30.793Z,8.78
2022-11-29T02:01:30.887Z,8.80
2022-11-29T02:02:30.841Z,8.78
2022-11-29T02:03:30.765Z,8.78
2022-11-29T02:04:30.748Z,8.76
2022-11-29T02:05:30.739Z,8.76
2022-11-29T02:06:30.737Z,8.73
2022-11-29T02:07:30.812Z,8.73
2022-11-29T02:08:30.719Z,8.73
2022-11-29T02:09:30.726Z,8.73
2022-11-29T02:10:30.687Z,8.73
2022-11-29T02:11:30.672Z,8.73
2022-11-29T02:12:30.654Z,8.73
2022-11-29T02:13:30.648Z,8.71
2022-11-29T02:14:30.642Z,8.71
2022-11-29T02:15:30.725Z,8.73
2022-11-29T02:16:30.616Z,8.73
2022-11-29T02:17:30.624Z,8.75
2022-11-29T02:18:30.616Z,8.76
2022-11-29T02:19:30.583Z,8.79
2022-11-29T02:20:30.589Z,8.80
2022-11-29T02:21:30.589Z,8.80
2022-11-29T02:22:30.566Z,8.80
2022-11-29T02:23:30.548Z,8.82
2022-11-29T02:24:30.594Z,8.82
2022-11-29T02:25:30.526Z,8.80
2022-11-29T02:26:30.506Z,8.82
2022-11-29T02:27:30.497Z,8.82
2022-11-29T02:28:30.505Z,8.85
2022-11-29T02:29:30.494Z,8.88
2022-11-29T02:30:30.517Z,8.89
2022-11-29T02:31:30.461Z,8.89
2022-11-29T02:32:30.462Z,8.93
2022-11-29T02:33:30.454Z,8.94
2022-11-29T02:34:30.474Z,8.97
2022-11-29T02:35:30.414Z,8.98
2022-11-29T02:36:30.394Z,8.98
2022-11-29T02:37:30.383Z,8.98
2022-11-29T02:38:30.395Z,8.97
2022-11-29T02:39:30.375Z,8.93
2022-11-29T02:40:30.348Z,8.98
2022-11-29T02:41:30.355Z,8.98
2022-11-29T02:42:30.374Z,9.01
2022-11-29T02:43:30.341Z,9.00
2022-11-29T02:44:30.331Z,9.01
2022-11-29T02:45:30.301Z,9.00
2022-11-29T02:47:21.706Z,9.00
2022-11-29T02:48:23.215Z,8.98
2022-11-29T02:49:22.698Z,9.00
2022-11-29T02:50:22.693Z,9.00
2022-11-29T02:51:22.646Z,8.97
2022-11-29T02:52:22.643Z,8.98
2022-11-29T02:53:22.643Z,9.01
2022-11-29T02:54:22.640Z,9.01
2022-11-29T02:55:22.672Z,9.01
2022-11-29T02:56:22.621Z,9.03
2022-11-29T02:57:22.600Z,9.01
2022-11-29T02:58:22.584Z,9.01
2022-11-29T02:59:22.664Z,9.01
2022-11-29T03:00:22.556Z,8.98
2022-11-29T03:01:22.639Z,9.00
2022-11-29T03:02:22.617Z,9.00
2022-11-29T03:03:22.511Z,9.00
2022-11-29T03:04:22.514Z,9.01
2022-11-29T03:05:22.501Z,9.04
2022-11-29T03:06:22.495Z,9.04
2022-11-29T03:07:22.517Z,9.04
2022-11-29T03:08:22.485Z,9.04
2022-11-29T03:09:22.445Z,9.03
2022-11-29T03:10:22.444Z,9.03
2022-11-29T03:11:22.442Z,9.03
2022-11-29T03:12:22.430Z,9.01
2022-11-29T03:13:22.424Z,9.04
2022-11-29T03:14:22.408Z,9.08
2022-11-29T03:15:22.387Z,9.06
2022-11-29T03:16:22.400Z,9.10
2022-11-29T03:17:22.367Z,9.12
2022-11-29T03:18:22.349Z,9.12
2022-11-29T03:19:22.388Z,9.12
2022-11-29T03:20:22.345Z,9.12
2022-11-29T03:21:22.343Z,9.08
2022-11-29T03:22:22.304Z,9.08
2022-11-29T03:23:22.333Z,9.06
2022-11-29T03:24:22.307Z,9.08
2022-11-29T03:25:22.284Z,9.08
2022-11-29T03:26:22.353Z,9.08
2022-11-29T03:27:28.825Z,9.06
2022-11-29T03:28:22.265Z,9.06
2022-11-29T03:29:22.283Z,9.06
2022-11-29T03:30:22.242Z,9.03
2022-11-29T03:31:22.247Z,9.01
2022-11-29T03:32:22.193Z,9.06
2022-11-29T03:33:22.200Z,9.04
2022-11-29T03:34:22.167Z,9.06
2022-11-29T03:35:22.168Z,9.08
2022-11-29T03:36:22.174Z,9.08
2022-11-29T03:37:22.143Z,9.06
2022-11-29T03:38:22.128Z,9.04
2022-11-29T03:39:22.126Z,9.06
2022-11-29T03:40:22.114Z,9.06
2022-11-29T03:41:22.132Z,9.06
2022-11-29T03:42:22.081Z,9.06
2022-11-29T03:43:22.100Z,9.10
2022-11-29T03:44:22.066Z,9.13
2022-11-29T03:45:22.066Z,9.16
2022-11-29T03:46:22.080Z,9.19
2022-11-29T03:47:22.050Z,9.22
2022-11-29T03:48:22.033Z,9.23
2022-11-29T03:49:22.010Z,9.26
2022-11-29T03:50:22.022Z,9.26
2022-11-29T03:51:21.991Z,9.26
2022-11-29T03:52:21.997Z,9.23
2022-11-29T03:53:21.989Z,9.22
2022-11-29T03:54:21.952Z,9.22
2022-11-29T03:55:21.966Z,9.20
2022-11-29T03:56:21.926Z,9.17
2022-11-29T03:57:28.538Z,9.16
2022-11-29T03:58:21.907Z,9.16
2022-11-29T03:59:21.929Z,9.16
2022-11-29T04:00:21.918Z,9.16
2022-11-29T04:01:21.981Z,9.17
2022-11-29T04:02:21.915Z,9.20
2022-11-29T04:03:21.887Z,9.20
2022-11-29T04:04:21.858Z,9.19
2022-11-29T04:05:21.835Z,9.20
2022-11-29T04:06:21.847Z,9.19
2022-11-29T04:07:21.869Z,9.17
2022-11-29T04:08:21.794Z,9.15
2022-11-29T04:09:21.800Z,9.12
2022-11-29T04:10:21.793Z,9.10
2022-11-29T04:11:21.797Z,9.08
2022-11-29T04:12:21.768Z,9.08
2022-11-29T04:13:21.748Z,9.10
2022-11-29T04:14:21.733Z,9.12
2022-11-29T04:15:21.744Z,9.10
2022-11-29T04:16:21.794Z,9.13
2022-11-29T04:17:28.269Z,9.13
2022-11-29T04:18:21.682Z,9.15
2022-11-29T04:19:21.715Z,9.15
2022-11-29T04:20:21.682Z,9.15
2022-11-29T04:21:21.676Z,9.15
2022-11-29T04:22:21.651Z,9.15
2022-11-29T04:23:21.648Z,9.13
2022-11-29T04:24:21.641Z,9.13
2022-11-29T04:25:21.617Z,9.16
2022-11-29T04:26:21.594Z,9.16
2022-11-29T04:27:21.600Z,9.19
2022-11-29T04:28:21.624Z,9.19
2022-11-29T04:29:21.571Z,9.20
2022-11-29T04:30:21.560Z,9.19
2022-11-29T04:31:21.595Z,9.17
2022-11-29T04:32:21.539Z,9.17
2022-11-29T04:33:21.526Z,9.15
2022-11-29T04:34:21.515Z,9.13
2022-11-29T04:35:21.533Z,9.13
2022-11-29T04:36:21.508Z,9.13
2022-11-29T04:37:21.502Z,9.13
2022-11-29T04:38:21.486Z,9.13
2022-11-29T04:39:21.468Z,9.13
2022-11-29T04:40:21.443Z,9.12
2022-11-29T04:41:21.458Z,9.12
2022-11-29T04:42:21.418Z,9.12
2022-11-29T04:43:21.442Z,9.13
2022-11-29T04:44:21.392Z,9.15
2022-11-29T04:45:21.390Z,9.15
2022-11-29T04:46:21.434Z,9.15
2022-11-29T04:47:21.391Z,9.15
2022-11-29T04:48:21.387Z,9.16
2022-11-29T04:49:21.340Z,9.16
2022-11-29T04:50:21.356Z,9.19
2022-11-29T04:51:21.344Z,9.19
2022-11-29T04:52:21.331Z,9.20
2022-11-29T04:53:21.325Z,9.20
2022-11-29T04:54:21.309Z,9.20
2022-11-29T04:55:29.287Z,9.19
2022-11-29T04:56:21.318Z,9.19
2022-11-29T04:57:21.270Z,9.19
2022-11-29T04:58:21.272Z,9.20
2022-11-29T04:59:21.297Z,9.22
2022-11-29T05:00:21.255Z,9.22
2022-11-29T05:01:21.292Z,9.23
2022-11-29T05:02:21.273Z,9.22
2022-11-29T05:03:21.208Z,9.20
2022-11-29T05:04:21.198Z,9.19
2022-11-29T05:05:21.174Z,9.17
2022-11-29T05:06:21.182Z,9.20
2022-11-29T05:07:27.746Z,9.20
2022-11-29T05:08:21.161Z,9.19
2022-11-29T05:09:21.142Z,9.19
2022-11-29T05:10:21.115Z,9.22
2022-11-29T05:11:26.492Z,9.22
2022-11-29T05:12:21.144Z,9.23
2022-11-29T05:13:21.072Z,9.24
2022-11-29T05:14:21.096Z,9.26
2022-11-29T05:15:21.097Z,9.30
2022-11-29T05:16:21.134Z,9.31
2022-11-29T05:17:21.028Z,9.31
2022-11-29T05:18:21.033Z,9.30
2022-11-29T05:19:21.028Z,9.31
2022-11-29T05:20:21.029Z,9.31
2022-11-29T05:21:21.003Z,9.34
2022-11-29T05:22:20.997Z,9.32
2022-11-29T05:23:20.991Z,9.32
2022-11-29T05:24:20.977Z,9.31
2022-11-29T05:25:20.947Z,9.30
2022-11-29T05:26:20.941Z,9.30
2022-11-29T05:27:28.521Z,9.31
2022-11-29T05:28:20.934Z,9.34
2022-11-29T05:29:20.921Z,9.31
2022-11-29T05:30:20.967Z,9.30
2022-11-29T05:31:20.939Z,9.26
2022-11-29T05:32:20.871Z,9.26
2022-11-29T05:33:20.887Z,9.26
2022-11-29T05:34:20.847Z,9.26
2022-11-29T05:35:20.903Z,9.27
2022-11-29T05:36:20.857Z,9.30
2022-11-29T05:37:20.817Z,9.34
2022-11-29T05:38:20.822Z,9.34
2022-11-29T05:39:20.782Z,9.34
2022-11-29T05:40:20.799Z,9.35
2022-11-29T05:41:20.799Z,9.35
2022-11-29T05:42:20.789Z,9.37
2022-11-29T05:43:20.768Z,9.38
2022-11-29T05:44:20.738Z,9.37
2022-11-29T05:45:20.720Z,9.38
2022-11-29T05:46:20.775Z,9.38
2022-11-29T05:47:20.698Z,9.37
2022-11-29T05:48:20.701Z,9.34
2022-11-29T05:49:20.743Z,9.34
2022-11-29T05:50:20.689Z,9.34
2022-11-29T05:51:20.663Z,9.34
2022-11-29T05:52:20.699Z,9.32
2022-11-29T05:53:20.630Z,9.32
2022-11-29T05:54:20.673Z,9.31
2022-11-29T05:55:20.634Z,9.27
2022-11-29T05:56:20.631Z,9.30
2022-11-29T05:57:27.710Z,9.24
2022-11-29T05:58:22.527Z,9.26
2022-11-29T05:59:20.585Z,9.27
2022-11-29T06:00:20.582Z,9.27
2022-11-29T06:01:20.619Z,9.27
2022-11-29T06:02:20.565Z,9.30
2022-11-29T06:03:20.653Z,9.27
2022-11-29T06:04:20.524Z,9.30
2022-11-29T06:05:20.496Z,9.27
2022-11-29T06:06:20.511Z,9.26
2022-11-29T06:07:20.518Z,9.27
2022-11-29T06:08:20.471Z,9.27
2022-11-29T06:09:20.487Z,9.30
2022-11-29T06:10:20.490Z,9.27
2022-11-29T06:11:20.472Z,9.27
2022-11-29T06:12:21.342Z,9.26
2022-11-29T06:13:20.406Z,9.26
2022-11-29T06:14:20.415Z,9.26
2022-11-29T06:15:20.414Z,9.26
2022-11-29T06:16:20.432Z,9.27
2022-11-29T06:17:20.438Z,9.27
2022-11-29T06:18:20.362Z,9.27
2022-11-29T06:19:20.341Z,9.27
2022-11-29T06:20:20.466Z,9.27
2022-11-29T06:21:20.348Z,9.27
2022-11-29T06:22:20.346Z,9.30
2022-11-29T06:23:20.317Z,9.27
2022-11-29T06:24:25.512Z,9.30
2022-11-29T06:25:20.319Z,9.32
2022-11-29T06:26:20.286Z,9.32
2022-11-29T06:27:20.261Z,9.34
2022-11-29T06:28:20.311Z,9.38
2022-11-29T06:29:20.245Z,9.38
2022-11-29T06:30:20.254Z,9.38
2022-11-29T06:31:20.315Z,9.42
2022-11-29T06:32:20.288Z,9.42
2022-11-29T06:33:20.194Z,9.42
2022-11-29T06:34:20.238Z,9.44
2022-11-29T06:35:20.213Z,9.49
2022-11-29T06:36:20.221Z,9.45
2022-11-29T06:37:20.170Z,9.44
2022-11-29T06:38:20.169Z,9.42
2022-11-29T06:39:20.138Z,9.40
2022-11-29T06:40:21.113Z,9.38
2022-11-29T06:41:20.127Z,9.38
2022-11-29T06:42:20.150Z,9.40
2022-11-29T06:43:20.119Z,9.41
2022-11-29T06:44:20.080Z,9.41
2022-11-29T06:45:20.063Z,9.42
2022-11-29T06:46:20.140Z,9.42
2022-11-29T06:47:20.093Z,9.45
2022-11-29T06:48:20.061Z,9.49
2022-11-29T06:49:20.042Z,9.50
2022-11-29T06:50:20.065Z,9.49
2022-11-29T06:51:20.017Z,9.48
2022-11-29T06:52:20.013Z,9.49
2022-11-29T06:53:19.996Z,9.49
2022-11-29T06:54:19.987Z,9.49
2022-11-29T06:55:19.964Z,9.50
2022-11-29T06:56:20.021Z,9.50
2022-11-29T06:57:19.977Z,9.52
2022-11-29T06:58:19.956Z,9.52
2022-11-29T06:59:19.935Z,9.55
2022-11-29T07:00:19.946Z,9.53
2022-11-29T07:01:19.985Z,9.53
2022-11-29T07:02:19.954Z,9.50
2022-11-29T07:03:20.164Z,9.50
2022-11-29T07:04:19.883Z,9.48
2022-11-29T07:05:19.973Z,9.45
2022-11-29T07:06:19.872Z,9.45
2022-11-29T07:07:19.892Z,9.48
2022-11-29T07:08:19.848Z,9.48
2022-11-29T07:09:19.818Z,9.52
2022-11-29T07:10:19.811Z,9.50
2022-11-29T07:11:19.822Z,9.53
2022-11-29T07:12:19.776Z,9.56
2022-11-29T07:13:19.761Z,9.58
2022-11-29T07:14:19.764Z,9.58
2022-11-29T07:15:20.406Z,9.59
2022-11-29T07:16:20.453Z,9.58
2022-11-29T07:17:19.761Z,9.59
2022-11-29T07:18:19.694Z,9.58
2022-11-29T07:19:19.719Z,9.60
2022-11-29T07:20:19.679Z,9.59
2022-11-29T07:21:19.701Z,9.56
2022-11-29T07:22:19.679Z,9.58
2022-11-29T07:23:19.680Z,9.59
2022-11-29T07:24:19.667Z,9.60
2022-11-29T07:25:19.641Z,9.60
2022-11-29T07:26:19.901Z,9.62
2022-11-29T07:27:34.392Z,9.65
2022-11-29T07:28:19.639Z,9.62
2022-11-29T07:29:19.626Z,9.62
2022-11-29T07:30:20.415Z,9.63
2022-11-29T07:31:19.601Z,9.60
2022-11-29T07:32:19.570Z,9.62
2022-11-29T07:33:19.549Z,9.60
2022-11-29T07:34:19.654Z,9.60
2022-11-29T07:35:19.635Z,9.63
2022-11-29T07:36:19.502Z,9.62
2022-11-29T07:37:19.510Z,9.63
2022-11-29T07:38:19.488Z,9.62
2022-11-29T07:39:19.474Z,9.63
2022-11-29T07:40:19.491Z,9.60
2022-11-29T07:41:19.483Z,9.60
2022-11-29T07:42:19.505Z,9.60
2022-11-29T07:43:20.652Z,9.60
2022-11-29T07:44:19.426Z,9.63
2022-11-29T07:45:19.422Z,9.63
2022-11-29T07:46:19.533Z,9.68
2022-11-29T07:47:19.433Z,9.65
2022-11-29T07:48:19.374Z,9.63
2022-11-29T07:49:19.425Z,9.62
2022-11-29T07:50:19.361Z,9.60
2022-11-29T07:51:19.350Z,9.62
2022-11-29T07:52:19.357Z,9.65
2022-11-29T07:53:19.364Z,9.65
2022-11-29T07:54:19.313Z,9.68
2022-11-29T07:55:19.435Z,9.67
2022-11-29T07:56:19.305Z,9.65
2022-11-29T07:57:19.280Z,9.62
2022-11-29T07:58:19.371Z,9.62
2022-11-29T07:59:19.260Z,9.63
2022-11-29T08:00:19.236Z,9.67
2022-11-29T08:01:19.256Z,9.65
2022-11-29T08:02:19.268Z,9.65
2022-11-29T08:03:19.248Z,9.63
2022-11-29T08:04:19.888Z,9.67
2022-11-29T08:05:19.285Z,9.68
2022-11-29T08:06:19.197Z,9.68
2022-11-29T08:07:19.209Z,9.67
2022-11-29T08:08:19.188Z,9.68
2022-11-29T08:09:19.952Z,9.68
2022-11-29T08:10:19.126Z,9.67
2022-11-29T08:11:19.118Z,9.67
2022-11-29T08:12:19.150Z,9.65
2022-11-29T08:13:19.107Z,9.65
2022-11-29T08:14:19.100Z,9.67
2022-11-29T08:15:19.082Z,9.67
2022-11-29T08:16:19.155Z,9.68
2022-11-29T08:17:19.080Z,9.68
2022-11-29T08:18:19.105Z,9.70
2022-11-29T08:19:19.080Z,9.73
2022-11-29T08:20:19.058Z,9.73
2022-11-29T08:21:19.039Z,9.75
2022-11-29T08:22:19.023Z,9.74
2022-11-29T08:23:19.001Z,9.75
2022-11-29T08:24:18.976Z,9.73
2022-11-29T08:25:18.999Z,9.70
2022-11-29T08:26:19.218Z,9.71
2022-11-29T08:27:18.971Z,9.74
2022-11-29T08:28:19.134Z,9.74
2022-11-29T08:29:18.943Z,9.73
2022-11-29T08:30:18.943Z,9.73
2022-11-29T08:31:18.992Z,9.71
2022-11-29T08:32:18.903Z,9.70
2022-11-29T08:33:18.874Z,9.73
2022-11-29T08:34:18.858Z,9.75
2022-11-29T08:35:18.878Z,9.77
2022-11-29T08:36:18.921Z,9.75
2022-11-29T08:37:26.376Z,9.74
2022-11-29T08:38:18.858Z,9.74
2022-11-29T08:39:18.826Z,9.75
2022-11-29T08:40:18.824Z,9.78
2022-11-29T08:41:18.795Z,9.78
2022-11-29T08:42:18.810Z,9.80
2022-11-29T08:43:18.781Z,9.81
2022-11-29T08:44:18.801Z,9.83
2022-11-29T08:45:18.763Z,9.81
2022-11-29T08:46:19.156Z,9.85
2022-11-29T08:47:18.726Z,9.89
2022-11-29T08:48:18.723Z,9.91
2022-11-29T08:49:18.729Z,9.95
2022-11-29T08:50:18.685Z,9.98
2022-11-29T08:51:18.688Z,10.01
2022-11-29T08:52:18.716Z,10.04
2022-11-29T08:53:18.642Z,10.10
2022-11-29T08:54:18.662Z,10.10
2022-11-29T08:55:18.640Z,10.11
2022-11-29T08:58:18.605Z,10.20
2022-11-29T08:59:18.602Z,10.18
2022-11-29T09:00:18.578Z,10.20
2022-11-29T09:01:18.708Z,10.20
2022-11-29T09:02:18.600Z,10.22
2022-11-29T09:03:18.541Z,10.24
2022-11-29T09:04:18.538Z,10.20
2022-11-29T09:05:18.515Z,10.20
2022-11-29T09:06:18.524Z,10.17
2022-11-29T09:07:18.610Z,10.17
2022-11-29T09:08:18.482Z,10.20
2022-11-29T09:09:18.508Z,10.22
2022-11-29T09:10:18.482Z,10.20
2022-11-29T09:11:22.176Z,10.22
2022-11-29T09:12:18.500Z,10.22
2022-11-29T09:13:18.450Z,10.25
2022-11-29T09:14:18.454Z,10.26
2022-11-29T09:15:18.436Z,10.28
2022-11-29T09:16:18.425Z,10.29
2022-11-29T09:17:18.392Z,10.31
2022-11-29T09:18:18.399Z,10.31
2022-11-29T09:19:18.392Z,10.26
2022-11-29T09:20:18.391Z,10.25
2022-11-29T09:21:18.388Z,10.25
2022-11-29T09:22:18.328Z,10.25
2022-11-29T09:23:18.337Z,10.24
2022-11-29T09:24:18.315Z,10.18
2022-11-29T09:25:18.309Z,10.16
2022-11-29T09:26:18.309Z,10.14
2022-11-29T09:27:18.269Z,10.16
2022-11-29T09:28:18.268Z,10.16
2022-11-29T09:29:18.499Z,10.16
2022-11-29T09:30:23.471Z,10.17
2022-11-29T09:31:28.273Z,10.18
2022-11-29T09:32:18.242Z,10.18
2022-11-29T09:33:18.229Z,10.17
2022-11-29T09:34:18.209Z,10.18
2022-11-29T09:35:18.185Z,10.18
2022-11-29T09:36:18.181Z,10.17
2022-11-29T09:37:18.196Z,10.18
2022-11-29T09:38:18.214Z,10.20
2022-11-29T09:39:18.152Z,10.22
2022-11-29T09:40:18.148Z,10.22
2022-11-29T09:41:18.115Z,10.25
2022-11-29T09:42:18.135Z,10.26
2022-11-29T09:43:18.112Z,10.26
2022-11-29T09:44:18.125Z,10.31
2022-11-29T09:45:18.091Z,10.29
2022-11-29T09:46:18.232Z,10.32
2022-11-29T09:47:18.075Z,10.35
2022-11-29T09:48:18.056Z,10.38
2022-11-29T09:49:18.041Z,10.39
2022-11-29T09:50:18.030Z,10.42
2022-11-29T09:51:18.064Z,10.39
2022-11-29T09:52:18.031Z,10.42
2022-11-29T09:53:18.000Z,10.42
2022-11-29T09:54:17.994Z,10.43
2022-11-29T09:55:17.977Z,10.43
2022-11-29T09:56:17.975Z,10.44
2022-11-29T09:57:24.027Z,10.42
2022-11-29T09:58:17.977Z,10.47
2022-11-29T09:59:17.934Z,10.46
2022-11-29T10:00:17.937Z,10.47
2022-11-29T10:01:17.939Z,10.47
2022-11-29T10:02:21.334Z,10.47
2022-11-29T10:03:17.926Z,10.46
2022-11-29T10:04:17.979Z,10.51
2022-11-29T10:05:17.868Z,10.51
2022-11-29T10:06:17.891Z,10.51
2022-11-29T10:07:17.915Z,10.49
2022-11-29T10:08:17.881Z,10.46
2022-11-29T10:09:18.139Z,10.47
2022-11-29T10:10:17.861Z,10.49
2022-11-29T10:11:17.778Z,10.51
2022-11-29T10:12:17.812Z,10.52
2022-11-29T10:13:17.784Z,10.55
2022-11-29T10:14:17.776Z,10.58
2022-11-29T10:15:17.737Z,10.62
2022-11-29T10:16:17.812Z,10.62
2022-11-29T10:17:17.730Z,10.66
2022-11-29T10:18:17.727Z,10.72
2022-11-29T10:19:17.850Z,10.78
2022-11-29T10:20:17.792Z,10.86
2022-11-29T10:21:17.755Z,10.95
2022-11-29T10:22:17.683Z,11.09
2022-11-29T10:23:17.700Z,11.24
2022-11-29T10:24:17.731Z,11.45
2022-11-29T10:25:17.662Z,11.63
2022-11-29T10:26:17.644Z,11.84
2022-11-29T10:27:17.614Z,12.01
2022-11-29T10:28:17.628Z,12.12
2022-11-29T10:29:17.613Z,12.12
2022-11-29T10:30:17.669Z,12.08
2022-11-29T10:31:17.668Z,12.04
2022-11-29T10:32:17.550Z,11.96
2022-11-29T10:33:17.564Z,11.84
2022-11-29T10:34:17.560Z,11.72
2022-11-29T10:35:17.566Z,11.63
2022-11-29T10:36:17.528Z,11.56
2022-11-29T10:37:17.535Z,11.48
2022-11-29T10:38:32.990Z,11.45
2022-11-29T10:39:17.513Z,11.41
2022-11-29T10:40:17.559Z,11.36
2022-11-29T10:41:17.493Z,11.35
2022-11-29T10:42:18.029Z,11.35
2022-11-29T10:43:17.457Z,11.30
2022-11-29T10:44:17.434Z,11.28
2022-11-29T10:45:17.441Z,11.28
2022-11-29T10:46:17.438Z,11.28
2022-11-29T10:47:17.607Z,11.27
2022-11-29T10:48:17.384Z,11.24
2022-11-29T10:49:17.395Z,11.21
2022-11-29T10:50:17.398Z,11.23
2022-11-29T10:51:17.392Z,11.21
2022-11-29T10:52:17.340Z,11.21
2022-11-29T10:53:17.364Z,11.21
2022-11-29T10:54:17.376Z,11.17
2022-11-29T10:55:17.299Z,11.20
2022-11-29T10:56:17.327Z,11.27
2022-11-29T10:57:17.271Z,11.31
2022-11-29T10:58:17.331Z,11.35
2022-11-29T10:59:17.759Z,11.35
2022-11-29T11:00:17.303Z,11.38
2022-11-29T11:01:17.364Z,11.39
2022-11-29T11:02:17.206Z,11.38
2022-11-29T11:03:17.224Z,11.36
2022-11-29T11:04:17.257Z,11.35
2022-11-29T11:05:17.262Z,11.36
2022-11-29T11:06:17.176Z,11.38
2022-11-29T11:07:17.212Z,11.38
2022-11-29T11:08:17.181Z,11.36
2022-11-29T11:09:17.181Z,11.35
2022-11-29T11:10:17.162Z,11.33
2022-11-29T11:11:17.164Z,11.33
2022-11-29T11:12:17.170Z,11.31
2022-11-29T11:13:17.099Z,11.31
2022-11-29T11:14:17.226Z,11.30
2022-11-29T11:15:17.073Z,11.33
2022-11-29T11:16:17.158Z,11.39
2022-11-29T11:17:17.096Z,11.41
2022-11-29T11:18:17.148Z,11.44
2022-11-29T11:19:18.050Z,11.48
2022-11-29T11:20:17.301Z,11.49
2022-11-29T11:21:17.036Z,11.48
2022-11-29T11:22:17.034Z,11.46
2022-11-29T11:23:17.037Z,11.45
2022-11-29T11:24:17.016Z,11.48
2022-11-29T11:25:17.011Z,11.49
2022-11-29T11:26:16.970Z,11.53
2022-11-29T11:27:16.983Z,11.51
2022-11-29T11:28:16.961Z,11.51
2022-11-29T11:29:16.941Z,11.51
2022-11-29T11:30:16.939Z,11.48
2022-11-29T11:31:19.365Z,11.45
2022-11-29T11:32:17.522Z,11.41
2022-11-29T11:33:16.882Z,11.36
2022-11-29T11:34:16.881Z,11.35
2022-11-29T11:35:18.507Z,11.30
2022-11-29T11:36:16.877Z,11.30
2022-11-29T11:37:16.871Z,11.30
2022-11-29T11:38:16.834Z,11.28
2022-11-29T11:39:16.822Z,11.28
2022-11-29T11:40:16.876Z,11.28
2022-11-29T11:41:16.803Z,11.33
2022-11-29T11:42:16.848Z,11.31
2022-11-29T11:43:16.760Z,11.28
2022-11-29T11:44:45.643Z,11.30
2022-11-29T11:45:16.768Z,11.30
2022-11-29T11:46:18.187Z,11.28
2022-11-29T11:47:16.768Z,11.28
2022-11-29T11:48:16.739Z,11.28
2022-11-29T11:49:16.697Z,11.24
2022-11-29T11:50:16.715Z,11.26
2022-11-29T11:51:16.707Z,11.28
2022-11-29T11:52:16.681Z,11.30
2022-11-29T11:53:16.667Z,11.36
2022-11-29T11:54:17.618Z,11.41
2022-11-29T11:55:16.656Z,11.42
2022-11-29T11:56:16.651Z,11.42
2022-11-29T11:57:16.626Z,11.45
2022-11-29T11:58:16.610Z,11.44
2022-11-29T11:59:16.584Z,11.45
2022-11-29T12:00:18.844Z,11.48
2022-11-29T12:01:16.578Z,11.48
2022-11-29T12:02:16.616Z,11.49
2022-11-29T12:03:16.639Z,11.49
2022-11-29T12:04:16.556Z,11.48
2022-11-29T12:05:16.567Z,11.46
2022-11-29T12:06:16.510Z,11.42
2022-11-29T12:07:16.609Z,11.42
2022-11-29T12:08:16.623Z,11.39
2022-11-29T12:09:19.404Z,11.38
2022-11-29T12:10:16.532Z,11.39
2022-11-29T12:11:16.504Z,11.38
2022-11-29T12:12:16.491Z,11.36
2022-11-29T12:13:16.555Z,11.38
2022-11-29T12:14:17.056Z,11.33
2022-11-29T12:15:16.435Z,11.31
2022-11-29T12:16:16.742Z,11.31
2022-11-29T12:17:19.995Z,11.33
2022-11-29T12:18:16.398Z,11.31
2022-11-29T12:19:16.409Z,11.28
2022-11-29T12:20:16.364Z,11.24
2022-11-29T12:21:16.372Z,11.19
2022-11-29T12:22:16.351Z,11.16
2022-11-29T12:23:17.050Z,11.12
2022-11-29T12:24:16.298Z,11.09
2022-11-29T12:25:16.318Z,11.03
2022-11-29T12:26:41.167Z,11.02
2022-11-29T12:27:16.361Z,10.99
2022-11-29T12:28:20.263Z,10.93
2022-11-29T12:29:16.262Z,10.90
2022-11-29T12:30:16.300Z,10.87
2022-11-29T12:31:16.355Z,10.88
2022-11-29T12:32:16.231Z,10.87
2022-11-29T12:33:16.249Z,10.88
2022-11-29T12:34:20.934Z,10.88
2022-11-29T12:35:19.046Z,10.88
2022-11-29T12:36:16.197Z,10.91
2022-11-29T12:37:22.718Z,10.87
2022-11-29T12:38:16.166Z,10.93
2022-11-29T12:39:16.148Z,10.93
2022-11-29T12:40:16.162Z,10.90
2022-11-29T12:41:16.133Z,10.93
2022-11-29T12:42:16.129Z,10.94
2022-11-29T12:43:16.139Z,10.95
2022-11-29T12:44:16.193Z,10.95
2022-11-29T12:45:16.310Z,10.95
2022-11-29T12:46:16.079Z,10.91
2022-11-29T12:48:16.079Z,10.94
2022-11-29T12:49:16.046Z,10.91
2022-11-29T12:50:16.029Z,10.88
2022-11-29T12:51:15.998Z,10.84
2022-11-29T12:52:16.015Z,10.80
2022-11-29T12:53:16.001Z,10.76
2022-11-29T12:54:15.997Z,10.75
2022-11-29T12:55:15.988Z,10.70
2022-11-29T12:56:16.005Z,10.70
2022-11-29T12:57:15.955Z,10.72
2022-11-29T12:58:15.931Z,10.73
2022-11-29T12:59:15.934Z,10.76
2022-11-29T13:00:15.909Z,10.76
2022-11-29T13:01:16.022Z,10.80
2022-11-29T13:02:15.905Z,10.80
2022-11-29T13:03:16.166Z,10.81
2022-11-29T13:04:15.918Z,10.81
2022-11-29T13:05:15.875Z,10.83
2022-11-29T13:06:15.902Z,10.84
2022-11-29T13:07:16.638Z,10.84
2022-11-29T13:08:15.814Z,10.84
2022-11-29T13:09:15.831Z,10.81
2022-11-29T13:10:18.471Z,10.80
2022-11-29T13:11:15.813Z,10.78
2022-11-29T13:12:16.013Z,10.75
2022-11-29T13:13:15.798Z,10.72